createdAt,value
2019-03-30T00:00:53.248Z,4.30
2019-03-30T00:03:21.319Z,4.22
2019-03-30T00:05:48.785Z,4.40
2019-03-30T00:08:16.240Z,4.07
2019-03-30T00:10:43.863Z,4.30
2019-03-30T00:13:11.279Z,4.23
2019-03-30T00:15:38.863Z,4.30
2019-03-30T00:18:06.314Z,4.30
2019-03-30T00:20:33.905Z,3.90
2019-03-30T00:23:01.364Z,4.50
2019-03-30T00:25:28.807Z,4.17
2019-03-30T00:27:56.250Z,4.20
2019-03-30T00:30:23.732Z,4.33
2019-03-30T00:32:51.170Z,4.40
2019-03-30T00:35:18.633Z,4.20
2019-03-30T00:37:46.098Z,4.60
2019-03-30T00:40:13.531Z,5.10
2019-03-30T00:42:40.999Z,4.40
2019-03-30T00:45:08.419Z,4.27
2019-03-30T00:47:35.957Z,4.00
2019-03-30T00:50:03.445Z,4.40
2019-03-30T00:52:30.885Z,4.50
2019-03-30T00:54:58.344Z,4.60
2019-03-30T00:57:26.557Z,4.13
2019-03-30T00:59:54.749Z,4.37
2019-03-30T01:02:22.213Z,4.37
2019-03-30T01:04:49.684Z,4.80
2019-03-30T01:07:17.142Z,4.30
2019-03-30T01:09:44.581Z,4.90
2019-03-30T01:12:12.050Z,4.63
2019-03-30T01:14:39.487Z,4.63
2019-03-30T01:17:06.935Z,5.20
2019-03-30T01:19:34.392Z,5.10
2019-03-30T01:22:01.832Z,5.20
2019-03-30T01:24:29.270Z,5.27
2019-03-30T01:26:56.750Z,4.90
2019-03-30T01:29:24.196Z,5.05
2019-03-30T01:31:51.639Z,5.10
2019-03-30T01:34:19.101Z,5.37
2019-03-30T01:36:46.559Z,4.70
2019-03-30T01:39:14.005Z,5.03
2019-03-30T01:41:41.446Z,5.67
2019-03-30T01:44:09.351Z,5.87
2019-03-30T01:46:37.021Z,5.37
2019-03-30T01:49:05.139Z,5.57
2019-03-30T01:51:32.594Z,5.30
2019-03-30T01:54:00.046Z,5.37
2019-03-30T01:56:27.509Z,5.27
2019-03-30T01:58:54.962Z,5.53
2019-03-30T02:01:22.407Z,5.67
2019-03-30T02:03:49.909Z,5.43
2019-03-30T02:06:17.388Z,5.53
2019-03-30T02:08:44.835Z,5.20
2019-03-30T02:11:12.274Z,5.78
2019-03-30T02:13:39.730Z,5.60
2019-03-30T02:16:07.507Z,5.70
2019-03-30T02:18:34.965Z,5.57
2019-03-30T02:21:02.471Z,6.00
2019-03-30T02:23:29.870Z,6.10
2019-03-30T02:25:57.427Z,5.60
2019-03-30T02:28:24.870Z,5.80
2019-03-30T02:30:52.326Z,5.73
2019-03-30T02:33:19.831Z,5.97
2019-03-30T02:35:47.278Z,6.33
2019-03-30T02:38:14.721Z,6.30
2019-03-30T02:40:42.206Z,5.90
2019-03-30T02:43:09.664Z,5.90
2019-03-30T02:45:38.079Z,6.12
2019-03-30T02:48:05.542Z,5.43
2019-03-30T02:50:48.549Z,5.70
2019-03-30T02:53:00.490Z,6.03
2019-03-30T02:55:27.927Z,6.70
2019-03-30T02:57:55.412Z,6.30
2019-03-30T03:00:22.835Z,6.40
2019-03-30T03:02:50.282Z,6.53
2019-03-30T03:05:17.703Z,6.57
2019-03-30T03:07:46.032Z,6.83
2019-03-30T03:10:13.682Z,6.17
2019-03-30T03:12:41.127Z,5.83
2019-03-30T03:15:08.792Z,6.53
2019-03-30T03:17:36.285Z,6.37
2019-03-30T03:20:03.726Z,6.05
2019-03-30T03:22:31.216Z,6.50
2019-03-30T03:24:58.649Z,6.97
2019-03-30T03:27:26.109Z,6.60
2019-03-30T03:29:53.591Z,6.37
2019-03-30T03:32:21.041Z,6.45
2019-03-30T03:34:48.523Z,6.13
2019-03-30T03:37:15.953Z,6.53
2019-03-30T03:39:43.387Z,6.77
2019-03-30T03:42:10.850Z,6.40
2019-03-30T03:44:38.361Z,6.70
2019-03-30T03:47:05.804Z,6.50
2019-03-30T03:49:33.277Z,6.40
2019-03-30T03:52:00.712Z,7.10
2019-03-30T03:54:28.182Z,6.53
2019-03-30T03:56:55.633Z,7.17
2019-03-30T03:59:23.127Z,6.57
2019-03-30T04:01:50.618Z,7.20
2019-03-30T04:04:18.053Z,7.30
2019-03-30T04:06:45.487Z,6.10
2019-03-30T04:09:13.189Z,6.90
2019-03-30T04:11:40.648Z,6.80
2019-03-30T04:14:08.100Z,6.83
2019-03-30T04:16:35.551Z,6.77
2019-03-30T04:19:03.014Z,6.23
2019-03-30T04:21:43.782Z,6.67
2019-03-30T04:23:57.948Z,6.87
2019-03-30T04:26:25.389Z,6.53
2019-03-30T04:28:52.858Z,6.67
2019-03-30T04:31:20.325Z,6.47
2019-03-30T04:33:47.798Z,6.87
2019-03-30T04:36:15.218Z,6.93
2019-03-30T04:38:43.232Z,7.25
2019-03-30T04:41:10.698Z,6.87
2019-03-30T04:43:38.139Z,6.82
2019-03-30T04:46:05.590Z,6.47
2019-03-30T04:48:33.056Z,7.30
2019-03-30T04:51:00.516Z,6.70
2019-03-30T04:53:27.962Z,6.70
2019-03-30T04:55:55.420Z,6.83
2019-03-30T04:58:22.876Z,7.43
2019-03-30T05:00:50.335Z,7.35
2019-03-30T05:03:17.779Z,7.40
2019-03-30T05:05:45.230Z,7.47
2019-03-30T05:08:13.250Z,6.85
2019-03-30T05:10:40.701Z,7.53
2019-03-30T05:13:08.159Z,6.63
2019-03-30T05:15:35.582Z,7.17
2019-03-30T05:18:03.037Z,7.00
2019-03-30T05:20:30.486Z,7.80
2019-03-30T05:22:57.957Z,6.40
2019-03-30T05:25:26.219Z,7.45
2019-03-30T05:27:53.771Z,7.47
2019-03-30T05:30:21.217Z,6.90
2019-03-30T05:32:48.673Z,7.40
2019-03-30T05:35:16.169Z,6.90
2019-03-30T05:37:43.650Z,7.20
2019-03-30T05:40:11.103Z,6.80
2019-03-30T05:42:38.571Z,6.87
2019-03-30T05:45:06.022Z,6.83
2019-03-30T05:47:33.474Z,6.97
2019-03-30T05:50:00.927Z,6.87
2019-03-30T05:52:28.378Z,7.13
2019-03-30T05:54:55.815Z,7.90
2019-03-30T05:57:23.293Z,7.53
2019-03-30T05:59:50.720Z,7.37
2019-03-30T06:02:18.200Z,7.60
2019-03-30T06:04:45.658Z,7.80
2019-03-30T06:07:13.247Z,7.73
2019-03-30T06:09:40.666Z,7.77
2019-03-30T06:12:08.146Z,8.97
2019-03-30T06:14:35.581Z,7.70
2019-03-30T06:17:03.058Z,7.63
2019-03-30T06:19:30.495Z,7.30
2019-03-30T06:21:57.919Z,8.10
2019-03-30T06:24:25.415Z,8.00
2019-03-30T06:26:52.860Z,7.20
2019-03-30T06:29:20.321Z,7.90
2019-03-30T06:31:47.766Z,7.97
2019-03-30T06:34:15.231Z,7.22
2019-03-30T06:36:43.318Z,7.53
2019-03-30T06:39:10.787Z,6.63
2019-03-30T06:41:38.226Z,7.30
2019-03-30T06:44:05.672Z,7.47
2019-03-30T06:46:33.156Z,7.33
2019-03-30T06:49:00.609Z,7.63
2019-03-30T06:51:28.085Z,6.67
2019-03-30T06:53:55.506Z,7.70
2019-03-30T06:56:22.960Z,7.83
2019-03-30T06:58:50.410Z,7.63
2019-03-30T07:01:18.780Z,7.87
2019-03-30T07:03:46.253Z,7.30
2019-03-30T07:06:13.730Z,7.53
2019-03-30T07:08:41.287Z,7.13
2019-03-30T07:11:20.610Z,8.00
2019-03-30T07:13:36.241Z,7.63
2019-03-30T07:16:03.772Z,7.50
2019-03-30T07:18:31.508Z,7.90
2019-03-30T07:20:58.942Z,7.27
2019-03-30T07:23:27.170Z,7.53
2019-03-30T07:25:54.627Z,7.20
2019-03-30T07:28:22.122Z,7.57
2019-03-30T07:30:49.574Z,8.20
2019-03-30T07:33:17.000Z,7.73
2019-03-30T07:35:44.446Z,7.73
2019-03-30T07:38:11.894Z,7.00
2019-03-30T07:40:39.500Z,7.27
2019-03-30T07:43:06.942Z,7.40
2019-03-30T07:45:34.356Z,7.00
2019-03-30T07:48:01.833Z,7.37
2019-03-30T07:50:29.313Z,7.90
2019-03-30T07:52:56.776Z,7.00
2019-03-30T07:55:24.254Z,7.00
2019-03-30T07:57:51.718Z,7.97
2019-03-30T08:00:19.182Z,7.20
2019-03-30T08:02:46.631Z,7.18
2019-03-30T08:05:14.774Z,7.50
2019-03-30T08:07:42.944Z,6.70
2019-03-30T08:10:11.424Z,6.70
2019-03-30T08:12:39.739Z,7.30
2019-03-30T08:15:07.924Z,7.20
2019-03-30T08:17:35.457Z,7.37
2019-03-30T08:20:02.923Z,7.00
2019-03-30T08:22:30.374Z,7.40
2019-03-30T08:24:57.812Z,7.50
2019-03-30T08:27:25.273Z,6.87
2019-03-30T08:29:52.691Z,7.07
2019-03-30T08:32:20.149Z,7.28
2019-03-30T08:34:47.611Z,6.57
2019-03-30T08:37:16.938Z,7.12
2019-03-30T08:39:44.395Z,6.50
2019-03-30T08:42:11.883Z,7.37
2019-03-30T08:44:39.362Z,6.87
2019-03-30T08:47:06.850Z,6.53
2019-03-30T08:49:34.346Z,7.70
2019-03-30T08:52:01.814Z,7.03
2019-03-30T08:54:29.615Z,6.60
2019-03-30T08:56:57.128Z,5.87
2019-03-30T08:59:25.086Z,5.97
2019-03-30T09:01:52.566Z,7.03
2019-03-30T09:04:20.079Z,6.97
2019-03-30T09:06:47.558Z,5.77
2019-03-30T09:09:15.035Z,6.47
2019-03-30T09:11:43.582Z,6.03
2019-03-30T09:14:10.012Z,5.60
2019-03-30T09:16:37.510Z,5.60
2019-03-30T09:19:04.974Z,5.43
2019-03-30T09:21:32.492Z,5.80
2019-03-30T09:24:09.422Z,5.50
2019-03-30T09:26:27.494Z,5.93
2019-03-30T09:28:55.007Z,4.90
2019-03-30T09:31:22.473Z,5.28
2019-03-30T09:33:49.949Z,5.63
2019-03-30T09:36:17.514Z,6.47
2019-03-30T09:38:45.100Z,5.83
2019-03-30T09:41:12.516Z,5.83
2019-03-30T09:43:40.011Z,6.30
2019-03-30T09:46:07.560Z,6.30
2019-03-30T09:48:35.050Z,6.10
2019-03-30T09:51:02.499Z,6.12
2019-03-30T11:22:42.191Z,7.07
2019-03-30T11:25:09.632Z,7.05
2019-03-30T11:27:37.091Z,6.77
2019-03-30T11:30:05.308Z,7.47
2019-03-30T11:32:32.783Z,6.43
2019-03-30T11:35:00.341Z,7.60
2019-03-30T11:37:27.792Z,7.40
2019-03-30T11:39:55.285Z,7.28
2019-03-30T11:42:22.723Z,8.38
2019-03-30T11:44:50.180Z,7.28
2019-03-30T11:47:17.659Z,8.43
2019-03-30T11:49:45.097Z,8.00
2019-03-30T11:52:12.560Z,6.97
2019-03-30T11:54:39.977Z,5.37
2019-03-30T11:57:07.428Z,7.53
2019-03-30T11:59:35.683Z,7.13
2019-03-30T12:02:03.139Z,7.00
2019-03-30T12:04:30.582Z,8.07
2019-03-30T12:06:58.041Z,7.75
2019-03-30T12:09:25.489Z,8.25
2019-03-30T12:11:54.002Z,6.34
2019-03-30T12:14:21.453Z,6.77
2019-03-30T12:16:48.918Z,7.37
2019-03-30T12:19:16.383Z,7.60
2019-03-30T12:21:43.813Z,7.90
2019-03-30T12:24:11.280Z,7.87
2019-03-30T12:26:38.730Z,7.62
2019-03-30T12:29:06.188Z,7.43
2019-03-30T12:31:33.650Z,7.28
2019-03-30T12:34:01.111Z,7.50
2019-03-30T12:36:28.531Z,7.20
2019-03-30T12:38:55.968Z,7.00
2019-03-30T12:41:23.997Z,6.68
2019-03-30T12:43:51.439Z,7.10
2019-03-30T12:46:18.907Z,7.28
2019-03-30T12:48:46.366Z,7.70
2019-03-30T12:51:13.845Z,6.67
2019-03-30T12:53:50.259Z,7.32
2019-03-30T12:56:09.066Z,6.20
2019-03-30T12:58:37.078Z,6.27
2019-03-30T13:01:04.601Z,7.10
2019-03-30T13:03:32.043Z,6.77
2019-03-30T13:05:59.512Z,6.20
2019-03-30T13:08:26.969Z,6.43
2019-03-30T13:10:54.432Z,6.70
2019-03-30T13:13:21.980Z,6.37
2019-03-30T13:15:49.496Z,6.30
2019-03-30T13:18:18.391Z,6.37
2019-03-30T13:20:46.886Z,6.45
2019-03-30T13:23:14.703Z,6.50
2019-03-30T13:25:43.305Z,6.18
2019-03-30T13:28:11.623Z,6.40
2019-03-30T13:30:40.265Z,6.45
2019-03-30T13:33:08.554Z,6.47
2019-03-30T13:35:36.818Z,7.05
2019-03-30T13:38:05.385Z,6.85
2019-03-30T13:40:34.003Z,6.18
2019-03-30T13:43:02.283Z,6.30
2019-03-30T13:45:30.925Z,6.73
2019-03-30T13:47:59.386Z,6.00
2019-03-30T13:50:30.821Z,5.67
2019-03-30T13:52:56.095Z,6.22
2019-03-30T13:55:24.471Z,6.40
2019-03-30T13:57:52.656Z,6.27
2019-03-30T14:00:20.500Z,6.10
2019-03-30T14:02:48.726Z,6.75
2019-03-30T14:05:16.355Z,6.47
2019-03-30T14:07:43.807Z,6.30
2019-03-30T14:10:11.267Z,6.90
2019-03-30T14:12:38.703Z,6.97
2019-03-30T14:15:09.161Z,7.65
2019-03-30T14:17:34.012Z,6.72
2019-03-30T14:20:02.866Z,7.47
2019-03-30T14:22:30.406Z,6.75
2019-03-30T14:24:57.855Z,6.40
2019-03-30T14:27:25.294Z,6.37
2019-03-30T14:29:54.518Z,7.30
2019-03-30T14:32:20.923Z,7.03
2019-03-30T14:34:48.403Z,7.33
2019-03-30T14:37:16.022Z,7.20
2019-03-30T14:39:43.641Z,6.80
2019-03-30T14:42:11.192Z,7.50
2019-03-30T14:44:38.805Z,6.47
2019-03-30T14:47:06.658Z,6.82
2019-03-30T14:49:34.137Z,7.33
2019-03-30T14:52:01.597Z,8.23
2019-03-30T14:54:29.130Z,6.70
2019-03-30T14:56:57.145Z,6.78
2019-03-30T14:59:24.593Z,7.07
2019-03-30T15:01:52.085Z,6.95
2019-03-30T15:04:19.592Z,8.40
2019-03-30T15:06:47.036Z,7.33
2019-03-30T15:09:14.494Z,8.30
2019-03-30T15:11:41.963Z,7.60
2019-03-30T15:14:09.420Z,8.23
2019-03-30T15:16:36.943Z,7.90
2019-03-30T15:19:04.553Z,8.10
2019-03-30T15:21:32.106Z,9.70
2019-03-30T15:23:59.556Z,7.83
2019-03-30T15:26:28.087Z,7.90
2019-03-30T15:28:55.524Z,8.88
2019-03-30T15:31:23.004Z,8.63
2019-03-30T15:33:53.191Z,8.97
2019-03-30T15:36:17.941Z,8.88
2019-03-30T15:38:45.381Z,12.75
2019-03-30T15:41:12.855Z,9.07
2019-03-30T15:43:40.291Z,8.98
2019-03-30T15:46:07.822Z,8.63
2019-03-30T15:48:35.267Z,8.80
2019-03-30T15:51:02.727Z,9.02
2019-03-30T15:56:03.886Z,8.80
2019-03-30T15:58:31.318Z,8.50
2019-03-30T16:00:58.817Z,9.53
2019-03-30T16:03:26.285Z,8.90
2019-03-30T16:05:53.713Z,8.83
2019-03-30T16:08:21.169Z,9.10
2019-03-30T16:10:52.056Z,9.30
2019-03-30T16:13:16.057Z,9.20
2019-03-30T16:15:44.631Z,8.20
2019-03-30T16:18:10.988Z,8.45
2019-03-30T16:20:38.424Z,8.00
2019-03-30T16:23:06.477Z,7.47
2019-03-30T16:25:33.934Z,8.06
2019-03-30T16:28:01.411Z,7.93
2019-03-30T16:30:29.369Z,8.24
2019-03-30T16:32:56.811Z,8.32
2019-03-30T16:35:24.252Z,8.60
2019-03-30T16:37:51.675Z,8.10
2019-03-30T16:40:19.169Z,7.73
2019-03-30T16:42:46.588Z,7.53
2019-03-30T16:45:14.013Z,7.70
2019-03-30T16:47:41.471Z,7.75
2019-03-30T16:50:08.908Z,8.75
2019-03-30T16:52:36.361Z,8.55
2019-03-30T16:55:03.860Z,7.97
2019-03-30T16:57:42.597Z,8.13
2019-03-30T16:59:58.744Z,8.47
2019-03-30T17:02:26.222Z,7.80
2019-03-30T17:04:53.699Z,8.13
2019-03-30T17:07:21.652Z,7.47
2019-03-30T17:09:49.132Z,7.73
2019-03-30T17:12:16.542Z,7.55
2019-03-30T17:14:43.975Z,7.73
2019-03-30T17:17:11.435Z,7.40
2019-03-30T17:19:39.124Z,7.32
2019-03-30T17:22:06.587Z,7.57
2019-03-30T17:24:34.033Z,7.22
2019-03-30T17:27:01.490Z,7.40
2019-03-30T17:29:28.981Z,7.97
2019-03-30T17:31:56.408Z,7.77
2019-03-30T17:34:23.861Z,6.85
2019-03-30T17:36:51.337Z,7.70
2019-03-30T17:39:18.832Z,7.87
2019-03-30T17:41:46.264Z,7.47
2019-03-30T17:44:13.715Z,7.35
2019-03-30T17:46:41.163Z,7.83
2019-03-30T17:49:09.164Z,7.45
2019-03-30T17:51:36.689Z,7.62
2019-03-30T17:54:04.140Z,8.53
2019-03-30T17:56:31.603Z,8.07
2019-03-30T17:58:59.521Z,8.20
2019-03-30T18:01:26.944Z,8.13
2019-03-30T18:03:54.354Z,7.63
2019-03-30T18:06:22.596Z,7.93
2019-03-30T18:08:50.047Z,8.50
2019-03-30T18:11:17.493Z,8.03
2019-03-30T18:13:44.931Z,7.80
2019-03-30T18:16:12.394Z,7.60
2019-03-30T18:18:39.848Z,7.97
2019-03-30T18:21:07.323Z,7.87
2019-03-30T18:23:34.731Z,7.80
2019-03-30T18:26:02.167Z,8.00
2019-03-30T18:28:29.586Z,8.00
2019-03-30T18:30:57.040Z,7.87
2019-03-30T18:33:24.495Z,7.70
2019-03-30T18:35:51.924Z,7.60
2019-03-30T18:38:19.385Z,7.40
2019-03-30T18:40:46.803Z,8.23
2019-03-30T18:43:14.277Z,8.13
2019-03-30T18:45:42.685Z,8.54
2019-03-30T18:48:10.892Z,8.40
2019-03-30T18:50:38.377Z,8.80
2019-03-30T18:53:06.551Z,8.95
2019-03-30T18:55:33.979Z,9.57
2019-03-30T18:58:02.342Z,10.73
2019-03-30T19:00:29.817Z,9.17
2019-03-30T19:02:57.263Z,9.10
2019-03-30T19:05:24.675Z,8.98
2019-03-30T19:07:52.926Z,8.75
2019-03-30T19:10:20.370Z,9.20
2019-03-30T19:12:47.825Z,9.05
2019-03-30T19:15:17.197Z,9.63
2019-03-30T19:17:44.633Z,8.90
2019-03-30T19:20:12.103Z,8.96
2019-03-30T19:22:39.573Z,9.43
2019-03-30T19:25:07.031Z,9.27
2019-03-30T19:27:34.471Z,9.25
2019-03-30T19:30:02.964Z,9.13
2019-03-30T19:32:30.438Z,9.52
2019-03-30T19:34:57.885Z,9.17
2019-03-30T19:37:25.334Z,9.65
2019-03-30T19:39:53.751Z,9.18
2019-03-30T19:42:21.191Z,9.63
2019-03-30T19:44:48.619Z,9.03
2019-03-30T19:47:16.058Z,9.30
2019-03-30T19:49:43.524Z,9.10
2019-03-30T19:52:12.605Z,9.30
2019-03-30T19:54:40.187Z,9.80
2019-03-30T19:57:07.635Z,9.70
2019-03-30T19:59:35.109Z,9.38
2019-03-30T20:02:02.541Z,10.65
2019-03-30T20:04:30.018Z,10.90
2019-03-30T20:06:57.446Z,10.50
2019-03-30T20:09:24.907Z,10.80
2019-03-30T20:11:52.361Z,10.53
2019-03-30T20:14:19.803Z,10.33
2019-03-30T20:16:47.263Z,10.80
2019-03-30T20:19:14.734Z,9.23
2019-03-30T20:21:42.182Z,10.20
2019-03-30T20:24:09.656Z,10.52
2019-03-30T20:26:37.108Z,10.80
2019-03-30T20:29:05.183Z,10.82
2019-03-30T20:31:32.634Z,12.07
2019-03-30T20:34:00.073Z,11.57
2019-03-30T20:36:27.567Z,11.10
2019-03-30T20:38:54.987Z,11.73
2019-03-30T20:41:22.478Z,13.50
2019-03-30T20:43:49.911Z,13.17
2019-03-30T20:46:17.814Z,12.03
2019-03-30T20:48:46.242Z,11.23
2019-03-30T20:51:13.704Z,11.80
2019-03-30T20:53:41.158Z,12.27
2019-03-30T20:56:08.653Z,12.57
2019-03-30T20:58:36.131Z,12.37
2019-03-30T21:01:04.615Z,13.80
2019-03-30T21:03:32.058Z,12.10
2019-03-30T21:05:59.483Z,12.37
2019-03-30T21:08:26.930Z,12.77
2019-03-30T21:10:56.496Z,13.90
2019-03-30T21:13:24.007Z,13.70
2019-03-30T21:15:51.444Z,14.20
2019-03-30T21:18:18.906Z,15.15
2019-03-30T21:20:46.335Z,14.25
2019-03-30T21:23:13.791Z,14.68
2019-03-30T21:25:41.422Z,15.73
2019-03-30T21:28:08.866Z,16.35
2019-03-30T21:30:36.317Z,15.10
2019-03-30T21:33:03.799Z,16.00
2019-03-30T21:35:31.245Z,13.85
2019-03-30T21:37:58.855Z,13.60
2019-03-30T21:40:26.151Z,13.68
2019-03-30T21:42:53.567Z,13.77
2019-03-30T21:45:21.010Z,14.13
2019-03-30T21:47:48.581Z,14.10
2019-03-30T21:50:16.047Z,14.10
2019-03-30T21:52:43.479Z,13.88
2019-03-30T21:55:10.911Z,14.18
2019-03-30T21:57:38.395Z,13.70
2019-03-30T22:00:10.591Z,14.07
2019-03-30T22:02:33.299Z,13.60
2019-03-30T22:05:00.765Z,12.50
2019-03-30T22:07:28.238Z,12.83
2019-03-30T22:09:55.668Z,14.33
2019-03-30T22:12:23.148Z,14.70
2019-03-30T22:14:50.833Z,13.53
2019-03-30T22:17:18.261Z,14.03
2019-03-30T22:19:45.737Z,14.48
2019-03-30T22:22:13.185Z,13.27
2019-03-30T22:24:40.611Z,13.70
2019-03-30T22:27:08.101Z,13.62
2019-03-30T22:29:36.186Z,13.83
2019-03-30T22:32:03.675Z,13.57
2019-03-30T22:34:31.748Z,14.77
2019-03-30T22:36:59.222Z,15.63
2019-03-30T22:39:26.670Z,16.05
2019-03-30T22:41:55.214Z,14.95
2019-03-30T22:44:22.773Z,16.13
2019-03-30T22:46:50.229Z,15.00
2019-03-30T22:49:17.672Z,15.80
2019-03-30T22:51:45.102Z,16.17
2019-03-30T22:54:12.576Z,15.18
2019-03-30T22:56:40.048Z,15.93
2019-03-30T22:59:07.709Z,16.23
2019-03-30T23:01:35.165Z,16.30
2019-03-30T23:04:02.617Z,17.25
2019-03-30T23:06:30.062Z,16.10
2019-03-30T23:08:57.523Z,16.87
2019-03-30T23:11:24.958Z,17.67
2019-03-30T23:13:52.445Z,17.40
2019-03-30T23:16:19.893Z,15.67
2019-03-30T23:18:47.358Z,16.70
2019-03-30T23:21:14.813Z,16.30
2019-03-30T23:23:42.246Z,18.63
2019-03-30T23:26:09.709Z,18.10
2019-03-30T23:28:37.378Z,17.27
2019-03-30T23:31:04.840Z,16.12
2019-03-30T23:33:32.305Z,17.33
2019-03-30T23:35:59.743Z,16.80
2019-03-30T23:38:27.178Z,17.30
2019-03-30T23:40:54.627Z,17.40
2019-03-30T23:43:22.079Z,16.42
2019-03-30T23:45:50.554Z,16.62
2019-03-30T23:48:18.024Z,17.13
2019-03-30T23:50:45.786Z,17.52
2019-03-30T23:53:13.246Z,17.90
2019-03-30T23:55:40.675Z,17.73
2019-03-30T23:58:08.130Z,16.87
